Houlton, ME

7:47 AM EST on March 04, 2015 (GMT -0500)
Houlton International | Change Station
CLOSE
Current Station
Airport
Location: Houlton,
Elevation: 492 ft
Nearby Weather Stations
Active Advisory: Winter Weather Advisory Active Notice: Public Information Statement

Elev 492 ft 46.12 °N, 67.79 °W | Updated 33 minutes ago

Overcast
Overcast
27 °F
Feels Like 20 °F
N
6
Wind Variable Wind from SW

Today
High -- | Low -- °F
--% Chance of Precip.
Yesterday
High -- | Low -- °F
Precip. -- in
6:05 AM 5:21 PM
Waxing Gibbous, 99% visible
Pressure 29.49 in
Visibility 9.0 miles
Clouds Few 900 ft
Mostly Cloudy 3800 ft
Overcast 7000 ft
Windchill 20 °F
Dew Point 24 °F
Humidity 89%
Rainfall 0.10 in
Snow Depth Not available.
UV 0 out of 12
Pollen .30 out of 12
Air Quality Not available.
Flu Activity Not available.
SPECI KHUL 041214Z AUTO 23005KT 9SM FEW009 BKN038 OVC070 M03/M04 A2949 RMK AO2 T10281044

More Conditions Fewer Conditions

Pressure 29.49 in
Visibility 9.0 miles
Clouds Few 900 ft
Mostly Cloudy 3800 ft
Overcast 7000 ft
Windchill 20 °F
Dew Point 24 °F
Humidity 89%
Rainfall 0.10 in
Snow Depth Not available.
UV 0 out of 12
Pollen .30 out of 12
Air Quality Not available.
Flu Activity Not available.
SPECI KHUL 041214Z AUTO 23005KT 9SM FEW009 BKN038 OVC070 M03/M04 A2949 RMK AO2 T10281044

More Conditions Fewer Conditions

10-Day Weather Forecast

Almanac

Astronomy

Mar. 04, 2015 Rise Set
Actual Time
Civil Twilight
Nautical Twilight
Astronomical Twilight
Moon
Length of Visible Light
Length of Day
Tomorrow will be .
, % of the Moon is Illuminated

Today's Extremes

State Highs State Lows

Community

WunderPhotos

Upload Photos

1,802,441 photos uploaded!

WunderBlogs® & News

Nearby

Air Quality

  Air Quality AQ Index Pollutant
Not available.

Snow Depth

Station Depth Elevation

Earthquake Activity

City Distance Mag. Time & Date
Minimum magnitude displayed is 2.5.

Coastal Water Temperatures

Place Temperature

Nearby Weather Stations

Winter Weather Advisory
Statement as of 6:01 AM EST on March 04, 2015

... Winter Weather Advisory remains in effect until 10 am EST this
morning...

* locations... northern Penobscot... southeast Aroostook... central
Penobscot... southern Piscataquis and northern Washington
counties.

* Hazard types... snow

* snow accumulations... 4 to 6 inches.

* Timing... early this morning.

* Impacts... snow will lead to snow covered roads which could
lead to some travel difficulties.

* Winds... southwest 10 to 15 mph with gusts up to 25 mph.

* Temperatures... in the upper 20s.

Precautionary/preparedness actions...

A Winter Weather Advisory for snow means that periods of snow
will cause primarily travel difficulties. Be prepared for snow
covered roads and limited visibilities... and use caution while
driving.